createdAt,value
2022-11-05T00:00:50.818Z,9.12
2022-11-05T00:01:50.841Z,9.14
2022-11-05T00:02:50.797Z,9.11
2022-11-05T00:03:50.872Z,9.04
2022-11-05T00:04:50.783Z,9.19
2022-11-05T00:05:50.779Z,9.11
2022-11-05T00:06:50.777Z,9.18
2022-11-05T00:07:50.759Z,9.15
2022-11-05T00:08:50.762Z,9.11
2022-11-05T00:09:50.754Z,9.08
2022-11-05T00:10:51.017Z,9.11
2022-11-05T00:11:50.734Z,9.18
2022-11-05T00:12:50.732Z,9.22
2022-11-05T00:13:50.744Z,9.15
2022-11-05T00:14:50.718Z,9.27
2022-11-05T00:15:50.703Z,9.18
2022-11-05T00:16:50.694Z,9.27
2022-11-05T00:17:50.689Z,9.33
2022-11-05T00:18:50.681Z,9.29
2022-11-05T00:19:51.060Z,9.26
2022-11-05T00:20:50.814Z,9.32
2022-11-05T00:21:50.922Z,9.26
2022-11-05T00:22:50.646Z,9.37
2022-11-05T00:23:50.645Z,9.30
2022-11-05T00:24:50.632Z,9.36
2022-11-05T00:25:50.631Z,9.34
2022-11-05T00:26:50.626Z,9.30
2022-11-05T00:27:51.734Z,9.33
2022-11-05T00:28:50.613Z,9.37
2022-11-05T00:29:50.644Z,9.36
2022-11-05T00:30:50.598Z,9.36
2022-11-05T00:31:50.588Z,9.34
2022-11-05T00:32:51.234Z,9.29
2022-11-05T00:33:50.790Z,9.26
2022-11-05T00:34:50.563Z,9.18
2022-11-05T00:35:50.577Z,9.12
2022-11-05T00:36:50.564Z,9.06
2022-11-05T00:37:50.859Z,9.15
2022-11-05T00:38:50.542Z,9.08
2022-11-05T00:39:50.531Z,9.16
2022-11-05T00:40:50.990Z,9.27
2022-11-05T00:41:50.524Z,9.12
2022-11-05T00:42:50.507Z,9.16
2022-11-05T00:43:50.525Z,9.22
2022-11-05T00:44:50.500Z,9.30
2022-11-05T00:45:50.523Z,9.26
2022-11-05T00:46:50.485Z,9.33
2022-11-05T00:47:50.499Z,9.33
2022-11-05T00:48:50.470Z,9.24
2022-11-05T00:49:50.475Z,9.26
2022-11-05T00:50:51.371Z,9.15
2022-11-05T00:51:50.462Z,9.22
2022-11-05T00:52:50.466Z,9.08
2022-11-05T00:53:50.438Z,9.08
2022-11-05T00:54:50.456Z,8.99
2022-11-05T00:55:50.427Z,9.03
2022-11-05T00:56:50.410Z,9.06
2022-11-05T00:57:50.404Z,9.12
2022-11-05T00:58:50.405Z,9.04
2022-11-05T00:59:50.402Z,9.15
2022-11-05T01:00:50.394Z,9.16
2022-11-05T01:01:50.649Z,9.23
2022-11-05T01:02:50.644Z,9.09
2022-11-05T01:03:51.912Z,9.08
2022-11-05T01:04:50.368Z,9.09
2022-11-05T01:05:50.380Z,9.08
2022-11-05T01:06:50.349Z,9.14
2022-11-05T01:07:50.346Z,9.15
2022-11-05T01:08:50.330Z,9.09
2022-11-05T01:09:50.328Z,9.14
2022-11-05T01:10:50.323Z,9.15
2022-11-05T01:11:50.329Z,9.19
2022-11-05T01:12:50.323Z,9.23
2022-11-05T01:13:50.300Z,9.19
2022-11-05T01:14:50.285Z,9.27
2022-11-05T01:15:50.281Z,9.19
2022-11-05T01:16:50.278Z,9.19
2022-11-05T01:17:50.303Z,9.09
2022-11-05T01:18:50.281Z,9.16
2022-11-05T01:19:51.617Z,9.23
2022-11-05T01:20:50.244Z,9.27
2022-11-05T01:21:50.242Z,9.26
2022-11-05T01:22:50.243Z,9.16
2022-11-05T01:23:50.225Z,9.22
2022-11-05T01:24:50.229Z,9.26
2022-11-05T01:25:50.221Z,9.26
2022-11-05T01:26:50.202Z,9.23
2022-11-05T01:27:50.217Z,9.33
2022-11-05T01:28:50.326Z,9.27
2022-11-05T01:29:50.205Z,9.26
2022-11-05T01:30:50.183Z,9.32
2022-11-05T01:31:50.171Z,9.42
2022-11-05T01:32:50.167Z,9.33
2022-11-05T01:33:50.288Z,9.37
2022-11-05T01:34:50.149Z,9.26
2022-11-05T01:35:50.154Z,9.12
2022-11-05T01:36:50.135Z,9.12
2022-11-05T01:37:50.129Z,9.09
2022-11-05T01:38:50.127Z,9.12
2022-11-05T01:39:50.128Z,9.06
2022-11-05T01:40:50.112Z,9.03
2022-11-05T01:41:50.121Z,8.98
2022-11-05T01:42:50.106Z,8.88
2022-11-05T01:43:50.091Z,8.93
2022-11-05T01:44:50.613Z,8.92
2022-11-05T01:45:50.074Z,8.95
2022-11-05T01:46:50.084Z,8.90
2022-11-05T01:47:50.066Z,8.98
2022-11-05T01:48:50.052Z,9.01
2022-11-05T01:49:50.138Z,8.98
2022-11-05T01:50:50.055Z,8.93
2022-11-05T01:51:50.812Z,9.03
2022-11-05T01:52:50.043Z,9.09
2022-11-05T01:53:50.033Z,9.08
2022-11-05T01:54:50.005Z,9.06
2022-11-05T01:55:50.005Z,9.09
2022-11-05T01:56:50.021Z,9.04
2022-11-05T01:57:49.985Z,9.12
2022-11-05T01:58:50.008Z,9.08
2022-11-05T01:59:49.972Z,9.18
2022-11-05T02:00:49.969Z,9.14
2022-11-05T02:01:50.775Z,9.14
2022-11-05T02:02:50.238Z,9.09
2022-11-05T02:03:49.989Z,9.08
2022-11-05T02:04:49.947Z,9.12
2022-11-05T02:05:49.963Z,8.98
2022-11-05T02:06:49.935Z,9.03
2022-11-05T02:07:49.922Z,9.04
2022-11-05T02:08:50.612Z,9.09
2022-11-05T02:09:49.903Z,9.12
2022-11-05T02:10:49.936Z,8.98
2022-11-05T02:11:49.885Z,8.96
2022-11-05T02:12:49.900Z,8.96
2022-11-05T02:13:49.881Z,8.98
2022-11-05T02:14:49.868Z,9.03
2022-11-05T02:15:49.864Z,8.96
2022-11-05T02:16:49.855Z,8.92
2022-11-05T02:17:49.848Z,8.96
2022-11-05T02:18:49.845Z,9.01
2022-11-05T02:19:49.856Z,9.03
2022-11-05T02:20:52.336Z,9.01
2022-11-05T02:21:50.236Z,9.08
2022-11-05T02:22:49.813Z,9.04
2022-11-05T02:23:49.808Z,9.04
2022-11-05T02:24:49.803Z,9.06
2022-11-05T02:25:49.797Z,9.19
2022-11-05T02:26:49.779Z,9.22
2022-11-05T02:27:49.798Z,9.15
2022-11-05T02:28:49.781Z,9.16
2022-11-05T02:29:49.760Z,9.23
2022-11-05T02:30:49.760Z,9.19
2022-11-05T02:31:49.749Z,9.19
2022-11-05T02:32:49.740Z,9.29
2022-11-05T02:33:49.750Z,9.15
2022-11-05T02:34:49.727Z,9.26
2022-11-05T02:35:50.300Z,9.32
2022-11-05T02:36:49.722Z,9.22
2022-11-05T02:37:49.730Z,9.22
2022-11-05T02:38:49.694Z,9.19
2022-11-05T02:39:49.695Z,9.19
2022-11-05T02:40:49.686Z,9.11
2022-11-05T02:41:49.676Z,9.14
2022-11-05T02:42:49.673Z,9.11
2022-11-05T02:43:49.670Z,9.08
2022-11-05T02:44:49.669Z,9.06
2022-11-05T02:45:49.649Z,9.15
2022-11-05T02:46:49.651Z,9.15
2022-11-05T02:47:50.178Z,9.16
2022-11-05T02:48:49.626Z,9.15
2022-11-05T02:49:50.293Z,9.08
2022-11-05T02:50:49.644Z,9.14
2022-11-05T02:51:49.619Z,9.16
2022-11-05T02:52:49.611Z,9.18
2022-11-05T02:53:49.616Z,9.18
2022-11-05T02:54:49.594Z,9.16
2022-11-05T02:55:49.614Z,9.26
2022-11-05T02:56:49.596Z,9.27
2022-11-05T02:57:49.565Z,9.18
2022-11-05T02:58:49.551Z,9.19
2022-11-05T02:59:50.828Z,9.23
2022-11-05T03:00:49.538Z,9.27
2022-11-05T03:01:49.694Z,9.19
2022-11-05T03:02:49.730Z,9.22
2022-11-05T03:03:49.521Z,9.26
2022-11-05T03:04:49.517Z,9.22
2022-11-05T03:05:49.508Z,9.24
2022-11-05T03:06:49.556Z,9.19
2022-11-05T03:07:49.490Z,9.26
2022-11-05T03:08:49.488Z,9.22
2022-11-05T03:09:49.745Z,9.23
2022-11-05T03:10:50.649Z,9.18
2022-11-05T03:11:49.464Z,9.34
2022-11-05T03:12:49.455Z,9.18
2022-11-05T03:13:49.444Z,9.24
2022-11-05T03:14:50.106Z,9.27
2022-11-05T03:15:49.861Z,9.27
2022-11-05T03:16:49.434Z,9.22
2022-11-05T03:17:49.432Z,9.22
2022-11-05T03:18:49.416Z,9.22
2022-11-05T03:19:49.413Z,9.22
2022-11-05T03:20:49.853Z,9.30
2022-11-05T03:21:49.391Z,9.26
2022-11-05T03:22:49.398Z,9.22
2022-11-05T03:23:49.387Z,9.26
2022-11-05T03:24:49.374Z,9.23
2022-11-05T03:25:49.387Z,9.24
2022-11-05T03:26:49.373Z,9.15
2022-11-05T03:27:49.351Z,9.23
2022-11-05T03:28:49.353Z,9.15
2022-11-05T03:29:49.338Z,9.11
2022-11-05T03:30:49.331Z,9.19
2022-11-05T03:31:49.334Z,9.23
2022-11-05T03:32:49.322Z,9.16
2022-11-05T03:33:49.335Z,9.12
2022-11-05T03:34:49.302Z,9.09
2022-11-05T03:35:49.304Z,9.12
2022-11-05T03:36:49.292Z,9.12
2022-11-05T03:37:49.284Z,9.14
2022-11-05T03:38:49.780Z,8.96
2022-11-05T03:39:49.270Z,9.08
2022-11-05T03:40:49.260Z,9.08
2022-11-05T03:41:49.287Z,9.09
2022-11-05T03:42:49.248Z,9.09
2022-11-05T03:43:49.652Z,9.06
2022-11-05T03:44:49.237Z,8.99
2022-11-05T03:45:49.223Z,8.99
2022-11-05T03:46:49.233Z,8.96
2022-11-05T03:47:49.632Z,8.86
2022-11-05T03:48:49.289Z,8.88
2022-11-05T03:49:49.204Z,8.78
2022-11-05T03:50:49.184Z,8.83
2022-11-05T03:51:49.187Z,8.85
2022-11-05T03:52:49.179Z,8.86
2022-11-05T03:53:49.819Z,8.85
2022-11-05T03:54:49.158Z,8.85
2022-11-05T03:55:49.159Z,8.88
2022-11-05T03:56:49.159Z,8.90
2022-11-05T03:57:49.161Z,8.95
2022-11-05T03:58:50.032Z,8.98
2022-11-05T03:59:49.141Z,9.01
2022-11-05T04:00:49.112Z,8.98
2022-11-05T04:01:49.293Z,9.04
2022-11-05T04:02:49.272Z,9.06
2022-11-05T04:03:49.101Z,9.06
2022-11-05T04:04:49.096Z,9.03
2022-11-05T04:05:49.080Z,8.98
2022-11-05T04:06:49.629Z,8.98
2022-11-05T04:07:49.064Z,8.96
2022-11-05T04:08:49.059Z,9.01
2022-11-05T04:09:49.064Z,8.98
2022-11-05T04:10:49.085Z,9.06
2022-11-05T04:11:49.687Z,9.03
2022-11-05T04:12:49.032Z,8.99
2022-11-05T04:13:49.053Z,8.90
2022-11-05T04:14:49.014Z,8.93
2022-11-05T04:15:49.032Z,9.03
2022-11-05T04:16:49.003Z,9.01
2022-11-05T04:17:48.993Z,8.99
2022-11-05T04:18:48.991Z,8.93
2022-11-05T04:19:48.988Z,8.99
2022-11-05T04:20:48.969Z,9.01
2022-11-05T04:21:48.982Z,9.01
2022-11-05T04:22:48.960Z,8.95
2022-11-05T04:23:48.955Z,9.01
2022-11-05T04:24:48.949Z,9.06
2022-11-05T04:25:48.987Z,9.14
2022-11-05T04:26:48.943Z,9.08
2022-11-05T04:27:48.924Z,9.08
2022-11-05T04:28:48.922Z,9.06
2022-11-05T04:29:49.107Z,9.08
2022-11-05T04:30:48.910Z,9.14
2022-11-05T04:31:48.921Z,9.09
2022-11-05T04:32:48.888Z,9.11
2022-11-05T04:33:48.888Z,9.15
2022-11-05T04:34:48.871Z,9.16
2022-11-05T04:35:48.873Z,9.16
2022-11-05T04:36:48.866Z,9.04
2022-11-05T04:37:48.855Z,9.19
2022-11-05T04:38:48.857Z,9.23
2022-11-05T04:39:48.835Z,9.15
2022-11-05T04:40:48.829Z,9.08
2022-11-05T04:41:48.965Z,9.14
2022-11-05T04:42:48.830Z,9.01
2022-11-05T04:43:48.815Z,8.99
2022-11-05T04:44:48.808Z,8.98
2022-11-05T04:45:48.825Z,9.01
2022-11-05T04:46:48.792Z,9.01
2022-11-05T04:47:49.201Z,8.95
2022-11-05T04:48:48.778Z,8.96
2022-11-05T04:49:48.777Z,8.99
2022-11-05T04:50:48.761Z,8.78
2022-11-05T04:51:48.762Z,8.77
2022-11-05T04:52:48.749Z,8.78
2022-11-05T04:53:48.743Z,8.71
2022-11-05T04:54:48.737Z,8.83
2022-11-05T04:55:48.724Z,8.83
2022-11-05T04:56:48.715Z,8.78
2022-11-05T04:57:48.720Z,8.71
2022-11-05T04:58:48.724Z,8.67
2022-11-05T04:59:48.704Z,8.67
2022-11-05T05:00:48.893Z,8.75
2022-11-05T05:01:48.771Z,8.60
2022-11-05T05:02:48.679Z,8.56
2022-11-05T05:03:48.670Z,8.57
2022-11-05T05:04:48.673Z,8.56
2022-11-05T05:05:48.682Z,8.57
2022-11-05T05:06:49.644Z,8.44
2022-11-05T05:07:48.644Z,8.47
2022-11-05T05:08:48.632Z,8.42
2022-11-05T05:09:48.634Z,8.39
2022-11-05T05:10:48.619Z,8.37
2022-11-05T05:11:49.216Z,8.31
2022-11-05T05:12:48.614Z,8.34
2022-11-05T05:13:48.602Z,8.38
2022-11-05T05:14:48.609Z,8.37
2022-11-05T05:15:49.474Z,8.34
2022-11-05T05:16:48.586Z,8.44
2022-11-05T05:17:48.597Z,8.39
2022-11-05T05:18:48.575Z,8.44
2022-11-05T05:19:48.561Z,8.42
2022-11-05T05:20:48.561Z,8.42
2022-11-05T05:21:48.579Z,8.41
2022-11-05T05:22:48.540Z,8.47
2022-11-05T05:23:48.556Z,8.49
2022-11-05T05:24:52.584Z,8.50
2022-11-05T05:25:48.522Z,8.41
2022-11-05T05:26:48.542Z,8.47
2022-11-05T05:27:48.513Z,8.39
2022-11-05T05:28:49.229Z,8.44
2022-11-05T05:29:48.504Z,8.41
2022-11-05T05:30:48.494Z,8.39
2022-11-05T05:31:48.495Z,8.41
2022-11-05T05:32:48.473Z,8.42
2022-11-05T05:33:48.498Z,8.26
2022-11-05T05:34:48.465Z,8.26
2022-11-05T05:35:48.459Z,8.17
2022-11-05T05:36:48.450Z,8.19
2022-11-05T05:37:48.451Z,8.16
2022-11-05T05:38:48.455Z,8.04
2022-11-05T05:39:48.426Z,7.98
2022-11-05T05:40:48.424Z,8.01
2022-11-05T05:41:48.423Z,7.80
2022-11-05T05:42:49.150Z,7.81
2022-11-05T05:43:48.410Z,7.77
2022-11-05T05:44:48.433Z,7.66
2022-11-05T05:45:48.396Z,7.68
2022-11-05T05:46:48.385Z,7.62
2022-11-05T05:47:48.376Z,7.61
2022-11-05T05:48:48.372Z,7.64
2022-11-05T05:49:48.402Z,7.58
2022-11-05T05:50:48.361Z,7.37
2022-11-05T05:51:48.357Z,7.44
2022-11-05T05:52:48.360Z,7.43
2022-11-05T05:53:48.339Z,7.31
2022-11-05T05:54:48.369Z,7.39
2022-11-05T05:55:48.331Z,7.46
2022-11-05T05:56:48.312Z,7.46
2022-11-05T05:57:48.413Z,7.46
2022-11-05T05:58:48.299Z,7.46
2022-11-05T05:59:48.302Z,7.43
2022-11-05T06:00:48.302Z,7.31
2022-11-05T06:01:48.427Z,7.31
2022-11-05T06:02:48.409Z,7.28
2022-11-05T06:03:48.328Z,7.22
2022-11-05T06:04:48.277Z,7.08
2022-11-05T06:05:48.369Z,7.13
2022-11-05T06:06:48.292Z,7.11
2022-11-05T06:07:48.278Z,7.07
2022-11-05T06:08:48.230Z,7.00
2022-11-05T06:09:48.232Z,7.03
2022-11-05T06:10:48.859Z,7.07
2022-11-05T06:11:48.219Z,6.99
2022-11-05T06:12:48.263Z,7.10
2022-11-05T06:13:48.219Z,7.04
2022-11-05T06:14:48.301Z,6.93
2022-11-05T06:15:48.216Z,6.99
2022-11-05T06:16:48.176Z,6.79
2022-11-05T06:17:51.705Z,6.88
2022-11-05T06:18:48.176Z,6.73
2022-11-05T06:19:48.162Z,6.82
2022-11-05T06:20:48.156Z,6.81
2022-11-05T06:21:48.292Z,6.86
2022-11-05T06:22:48.167Z,6.79
2022-11-05T06:23:48.165Z,6.74
2022-11-05T06:24:48.134Z,6.83
2022-11-05T06:25:48.131Z,6.75
2022-11-05T06:26:48.120Z,6.74
2022-11-05T06:27:48.185Z,6.78
2022-11-05T06:28:48.124Z,6.81
2022-11-05T06:29:48.094Z,6.78
2022-11-05T06:30:48.099Z,6.73
2022-11-05T06:31:48.125Z,6.74
2022-11-05T06:32:48.082Z,6.78
2022-11-05T06:33:48.077Z,6.81
2022-11-05T06:34:48.065Z,6.75
2022-11-05T06:35:48.056Z,6.75
2022-11-05T06:36:48.043Z,6.71
2022-11-05T06:37:48.185Z,6.70
2022-11-05T06:38:48.035Z,6.68
2022-11-05T06:39:48.051Z,6.68
2022-11-05T06:40:48.038Z,6.61
2022-11-05T06:42:16.511Z,6.64
2022-11-05T06:42:49.016Z,6.65
2022-11-05T06:43:48.011Z,6.57
2022-11-05T06:44:48.008Z,6.60
2022-11-05T06:45:47.996Z,6.50
2022-11-05T06:46:48.761Z,6.61
2022-11-05T06:47:47.969Z,6.57
2022-11-05T06:48:47.990Z,6.50
2022-11-05T06:49:48.133Z,6.70
2022-11-05T06:50:48.356Z,6.74
2022-11-05T06:51:48.895Z,6.70
2022-11-05T06:52:47.944Z,6.68
2022-11-05T06:53:47.955Z,6.68
2022-11-05T06:54:47.934Z,6.60
2022-11-05T06:55:47.937Z,6.71
2022-11-05T06:56:47.913Z,6.67
2022-11-05T06:57:47.917Z,6.92
2022-11-05T06:58:47.898Z,7.00
2022-11-05T06:59:47.910Z,6.99
2022-11-05T07:00:48.733Z,6.99
2022-11-05T07:01:48.528Z,7.07
2022-11-05T07:02:47.905Z,7.10
2022-11-05T07:03:47.884Z,7.03
2022-11-05T07:04:47.865Z,6.97
2022-11-05T07:05:47.877Z,7.03
2022-11-05T07:06:47.871Z,7.19
2022-11-05T07:07:47.876Z,7.42
2022-11-05T07:08:47.835Z,7.47
2022-11-05T07:09:47.862Z,7.74
2022-11-05T07:10:47.825Z,7.81
2022-11-05T07:11:47.816Z,7.91
2022-11-05T07:12:47.817Z,7.94
2022-11-05T07:13:47.824Z,8.19
2022-11-05T07:14:47.804Z,8.16
2022-11-05T07:15:47.799Z,8.12
2022-11-05T07:16:47.786Z,8.20
2022-11-05T07:17:47.834Z,8.10
2022-11-05T07:18:47.799Z,7.98
2022-11-05T07:19:47.768Z,7.88
2022-11-05T07:20:47.770Z,7.83
2022-11-05T07:21:47.757Z,7.77
2022-11-05T07:22:47.744Z,7.50
2022-11-05T07:23:47.774Z,7.50
2022-11-05T07:24:47.739Z,7.47
2022-11-05T07:25:47.752Z,7.36
2022-11-05T07:26:47.724Z,7.40
2022-11-05T07:27:47.723Z,7.46
2022-11-05T07:28:48.134Z,7.46
2022-11-05T07:29:47.705Z,7.61
2022-11-05T07:30:48.220Z,7.86
2022-11-05T07:31:47.700Z,8.10
2022-11-05T07:32:47.687Z,8.23
2022-11-05T07:33:47.685Z,8.53
2022-11-05T07:34:47.673Z,8.75
2022-11-05T07:35:47.666Z,9.04
2022-11-05T07:36:47.671Z,9.30
2022-11-05T07:37:47.685Z,9.52
2022-11-05T07:38:47.650Z,9.77
2022-11-05T07:39:47.643Z,9.84
2022-11-05T07:40:47.648Z,9.90
2022-11-05T07:41:47.651Z,10.08
2022-11-05T07:42:48.196Z,10.17
2022-11-05T07:43:47.605Z,10.24
2022-11-05T07:44:47.615Z,10.39
2022-11-05T07:45:47.587Z,10.58
2022-11-05T07:46:47.583Z,10.82
2022-11-05T07:47:47.649Z,11.00
2022-11-05T07:48:47.562Z,11.22
2022-11-05T07:49:47.566Z,11.46
2022-11-05T07:50:47.550Z,11.67
2022-11-05T07:51:47.544Z,11.89
2022-11-05T07:52:47.547Z,12.04
2022-11-05T07:53:47.545Z,12.04
2022-11-05T07:54:47.531Z,12.13
2022-11-05T07:55:47.526Z,12.15
2022-11-05T07:56:47.507Z,12.28
2022-11-05T07:57:47.645Z,12.36
2022-11-05T07:58:47.495Z,12.33
2022-11-05T07:59:47.490Z,12.43
2022-11-05T08:00:47.629Z,12.46
2022-11-05T08:01:47.686Z,12.54
2022-11-05T08:02:47.741Z,12.62
2022-11-05T08:03:47.657Z,12.76
2022-11-05T08:04:47.451Z,13.11
2022-11-05T08:05:47.457Z,13.39
2022-11-05T08:06:47.452Z,13.58
2022-11-05T08:07:47.433Z,13.65
2022-11-05T08:08:47.432Z,13.88
2022-11-05T08:09:47.426Z,13.94
2022-11-05T08:10:47.410Z,14.19
2022-11-05T08:11:47.405Z,14.26
2022-11-05T08:12:48.086Z,14.30
2022-11-05T08:13:47.429Z,14.27
2022-11-05T08:14:47.397Z,14.28
2022-11-05T08:15:47.383Z,14.30
2022-11-05T08:16:47.365Z,14.22
2022-11-05T08:17:47.755Z,14.09
2022-11-05T08:18:47.350Z,14.13
2022-11-05T08:19:47.347Z,14.33
2022-11-05T08:20:47.369Z,14.46
2022-11-05T08:21:47.330Z,14.63
2022-11-05T08:22:47.326Z,14.55
2022-11-05T08:23:47.334Z,14.52
2022-11-05T08:24:47.304Z,14.64
2022-11-05T08:25:47.324Z,14.58
2022-11-05T08:26:47.310Z,14.48
2022-11-05T08:27:47.294Z,14.18
2022-11-05T08:28:47.309Z,14.30
2022-11-05T08:29:47.304Z,14.44
2022-11-05T08:30:47.266Z,14.21
2022-11-05T08:31:47.260Z,13.88
2022-11-05T08:32:47.253Z,13.98
2022-11-05T08:33:47.254Z,14.00
2022-11-05T08:34:47.254Z,14.04
2022-11-05T08:35:47.237Z,14.15
2022-11-05T08:36:48.935Z,14.16
2022-11-05T08:37:47.222Z,14.34
2022-11-05T08:38:47.209Z,14.40
2022-11-05T08:39:47.201Z,14.19
2022-11-05T08:40:47.202Z,14.31
2022-11-05T08:41:47.213Z,14.23
2022-11-05T08:42:47.174Z,14.33
2022-11-05T08:43:47.240Z,14.44
2022-11-05T08:44:47.191Z,14.52
2022-11-05T08:45:47.193Z,14.52
2022-11-05T08:46:47.320Z,14.36
2022-11-05T08:47:47.246Z,14.44
2022-11-05T08:48:47.136Z,14.52
2022-11-05T08:49:47.137Z,14.46
2022-11-05T08:50:47.130Z,14.45
2022-11-05T08:51:47.114Z,14.37
2022-11-05T08:52:48.018Z,14.34
2022-11-05T08:53:47.118Z,14.19
2022-11-05T08:54:47.101Z,14.36
2022-11-05T08:55:47.143Z,14.58
2022-11-05T08:56:48.079Z,14.69
2022-11-05T08:57:47.083Z,14.55
2022-11-05T08:58:47.069Z,14.55
2022-11-05T08:59:47.060Z,14.73
2022-11-05T09:00:47.107Z,14.85
2022-11-05T09:01:48.330Z,15.03
2022-11-05T09:02:47.042Z,15.15
2022-11-05T09:03:47.034Z,14.99
2022-11-05T09:04:47.732Z,14.99
2022-11-05T09:05:47.055Z,15.23
2022-11-05T09:06:47.023Z,15.25
2022-11-05T09:07:47.020Z,15.41
2022-11-05T09:08:47.044Z,15.52
2022-11-05T09:09:47.012Z,15.66
2022-11-05T09:10:47.044Z,15.72
2022-11-05T09:12:10.650Z,15.70
2022-11-05T09:12:47.963Z,15.78
2022-11-05T09:13:46.998Z,15.90
2022-11-05T09:14:46.964Z,15.95
2022-11-05T09:15:47.044Z,15.77
2022-11-05T09:16:46.999Z,15.60
2022-11-05T09:17:47.071Z,15.43
2022-11-05T09:18:46.924Z,15.10
2022-11-05T09:19:46.979Z,15.14
2022-11-05T09:20:46.920Z,15.15
2022-11-05T09:21:46.916Z,15.36
2022-11-05T09:22:47.151Z,15.20
2022-11-05T09:23:46.919Z,14.77
2022-11-05T09:24:46.903Z,14.83
2022-11-05T09:25:46.905Z,14.87
2022-11-05T09:26:46.865Z,14.86
2022-11-05T09:27:46.860Z,15.01
2022-11-05T09:28:46.870Z,14.90
2022-11-05T09:29:46.850Z,14.99
2022-11-05T09:30:46.889Z,14.97
2022-11-05T09:31:46.844Z,14.85
2022-11-05T09:32:46.858Z,14.69
2022-11-05T09:33:47.034Z,14.63
2022-11-05T09:34:46.838Z,14.55
2022-11-05T09:35:46.811Z,14.87
2022-11-05T09:36:46.869Z,15.05
2022-11-05T09:37:46.800Z,15.07
2022-11-05T09:38:47.532Z,15.01
2022-11-05T09:39:47.305Z,14.85
2022-11-05T09:40:46.785Z,14.73
2022-11-05T09:41:46.785Z,14.77
2022-11-05T09:42:46.775Z,14.86
2022-11-05T09:43:46.753Z,14.59
2022-11-05T09:44:49.539Z,14.56
2022-11-05T09:45:46.782Z,14.71
2022-11-05T09:46:46.734Z,14.66
2022-11-05T09:47:46.740Z,14.87
2022-11-05T09:48:46.727Z,14.74
2022-11-05T09:49:46.737Z,14.89
2022-11-05T09:50:46.712Z,15.07
2022-11-05T09:51:46.708Z,15.17
2022-11-05T09:52:46.695Z,15.29
2022-11-05T09:53:46.691Z,15.60
2022-11-05T09:54:46.684Z,15.83
2022-11-05T09:55:47.109Z,15.73
2022-11-05T09:56:46.667Z,15.60
2022-11-05T09:57:46.652Z,15.70
2022-11-05T09:58:46.654Z,15.83
2022-11-05T09:59:46.647Z,15.88
2022-11-05T10:00:46.669Z,15.72
2022-11-05T10:01:46.752Z,15.51
2022-11-05T10:02:46.627Z,15.56
2022-11-05T10:03:46.605Z,15.41
2022-11-05T10:04:46.605Z,15.33
2022-11-05T10:05:47.607Z,15.32
2022-11-05T10:06:46.586Z,15.51
2022-11-05T10:07:46.590Z,15.51
2022-11-05T10:08:46.638Z,15.45
2022-11-05T10:09:46.568Z,15.65
2022-11-05T10:10:46.563Z,15.83
2022-11-05T10:11:47.088Z,15.80
2022-11-05T10:12:46.576Z,16.10
2022-11-05T10:13:46.539Z,16.37
2022-11-05T10:14:46.543Z,16.51
2022-11-05T10:15:46.531Z,16.82
2022-11-05T10:16:46.519Z,16.97
2022-11-05T10:17:46.506Z,17.24
2022-11-05T10:18:46.496Z,17.20
2022-11-05T10:19:46.493Z,17.07
2022-11-05T10:20:46.530Z,16.88
2022-11-05T10:22:49.615Z,17.10
2022-11-05T10:23:46.496Z,17.39
2022-11-05T10:24:46.504Z,17.59
2022-11-05T10:25:46.454Z,17.78
2022-11-05T10:26:47.422Z,17.87
2022-11-05T10:27:46.453Z,17.65
2022-11-05T10:28:46.419Z,16.97
2022-11-05T10:29:46.441Z,16.58
2022-11-05T10:30:46.413Z,16.28
2022-11-05T10:31:46.397Z,16.10
2022-11-05T10:32:46.404Z,16.21
2022-11-05T10:33:47.352Z,16.39
2022-11-05T10:34:46.439Z,16.59
2022-11-05T10:35:46.384Z,16.76
2022-11-05T10:36:46.381Z,17.02
2022-11-05T10:37:46.381Z,17.28
2022-11-05T10:38:46.353Z,17.43
2022-11-05T10:39:46.354Z,17.69
2022-11-05T10:40:46.339Z,17.91
2022-11-05T10:41:46.333Z,18.15
2022-11-05T10:42:46.333Z,18.30
2022-11-05T10:43:46.340Z,18.18
2022-11-05T10:44:46.340Z,17.96
2022-11-05T10:45:46.317Z,17.90
2022-11-05T10:46:46.346Z,17.81
2022-11-05T10:47:46.294Z,17.86
2022-11-05T10:48:46.293Z,17.83
2022-11-05T10:49:46.408Z,18.05
2022-11-05T10:50:46.270Z,18.17
2022-11-05T10:51:46.284Z,18.28
2022-11-05T10:52:46.263Z,18.23
2022-11-05T10:53:46.312Z,18.06
2022-11-05T10:54:46.266Z,17.91
2022-11-05T10:55:46.237Z,17.59
2022-11-05T10:56:46.217Z,16.88
2022-11-05T10:57:46.227Z,16.44
2022-11-05T10:58:46.228Z,16.40
2022-11-05T10:59:46.204Z,16.55
2022-11-05T11:00:46.287Z,16.40
2022-11-05T11:01:46.279Z,16.33
2022-11-05T11:02:46.172Z,15.99
2022-11-05T11:03:46.167Z,15.73
2022-11-05T11:04:46.212Z,15.50
2022-11-05T11:05:46.161Z,15.12
2022-11-05T11:06:46.153Z,15.04
2022-11-05T11:07:46.145Z,14.92
2022-11-05T11:08:46.130Z,14.90
2022-11-05T11:09:46.613Z,14.74
2022-11-05T11:10:46.115Z,14.38
2022-11-05T11:11:46.109Z,14.04
2022-11-05T11:12:46.106Z,14.03
2022-11-05T11:13:46.156Z,14.13
2022-11-05T11:14:46.108Z,14.37
2022-11-05T11:15:46.085Z,14.40
2022-11-05T11:16:46.082Z,14.23
2022-11-05T11:17:46.203Z,13.90
2022-11-05T11:18:46.082Z,14.00
2022-11-05T11:19:46.075Z,14.18
2022-11-05T11:20:46.044Z,14.05
2022-11-05T11:21:46.054Z,14.46
2022-11-05T11:22:46.066Z,14.59
2022-11-05T11:23:46.099Z,14.86
2022-11-05T11:24:46.035Z,14.90
2022-11-05T11:25:46.043Z,15.10
2022-11-05T11:26:46.014Z,15.51
2022-11-05T11:27:46.005Z,15.52
2022-11-05T11:28:46.805Z,15.73
2022-11-05T11:29:49.382Z,15.83
2022-11-05T11:30:45.979Z,15.91
2022-11-05T11:31:45.978Z,16.00
2022-11-05T11:32:45.970Z,15.85
2022-11-05T11:33:46.000Z,16.02
2022-11-05T11:34:45.948Z,15.98
2022-11-05T11:35:45.953Z,16.29
2022-11-05T11:36:45.925Z,16.37
2022-11-05T11:37:45.927Z,16.49
2022-11-05T11:38:45.964Z,16.70
2022-11-05T11:39:45.911Z,16.82
2022-11-05T11:40:45.917Z,16.61
2022-11-05T11:41:45.927Z,16.49
2022-11-05T11:42:45.904Z,16.34
2022-11-05T11:43:45.887Z,16.36
2022-11-05T11:44:45.912Z,16.47
2022-11-05T11:45:45.909Z,16.52
2022-11-05T11:46:45.892Z,16.91
2022-11-05T11:47:45.853Z,17.19
2022-11-05T11:48:45.835Z,17.20
2022-11-05T11:49:45.864Z,17.32
2022-11-05T11:50:45.827Z,17.50
2022-11-05T11:51:49.954Z,17.50
2022-11-05T11:52:45.850Z,17.52
2022-11-05T11:53:45.810Z,17.24
2022-11-05T11:54:45.799Z,17.14
2022-11-05T11:55:46.270Z,17.07
2022-11-05T11:56:46.029Z,16.82
2022-11-05T11:57:45.809Z,16.76
2022-11-05T11:58:45.772Z,17.13
2022-11-05T12:00:07.723Z,17.12
2022-11-05T12:00:46.764Z,16.91
2022-11-05T12:01:45.808Z,16.65
2022-11-05T12:02:46.319Z,16.51
2022-11-05T12:03:45.743Z,16.59
2022-11-05T12:04:45.749Z,16.74
2022-11-05T12:05:45.723Z,16.98
2022-11-05T12:06:45.738Z,16.84
2022-11-05T12:07:47.076Z,16.73
2022-11-05T12:08:52.246Z,16.69
2022-11-05T12:09:46.689Z,17.01
2022-11-05T12:10:45.704Z,17.10
2022-11-05T12:11:45.679Z,17.12
2022-11-05T12:12:45.855Z,17.39
2022-11-05T12:13:45.688Z,17.19
2022-11-05T12:14:46.758Z,17.10
2022-11-05T12:15:45.658Z,17.06
2022-11-05T12:16:45.636Z,16.84
2022-11-05T12:17:45.628Z,16.73
2022-11-05T12:18:45.629Z,16.80
2022-11-05T12:19:46.160Z,17.09
2022-11-05T12:20:48.264Z,17.09
2022-11-05T12:21:53.015Z,16.59
2022-11-05T12:22:46.596Z,16.42
2022-11-05T12:23:45.621Z,16.03
2022-11-05T12:24:45.585Z,15.59
2022-11-05T12:25:45.577Z,15.12
2022-11-05T12:26:45.571Z,14.93
2022-11-05T12:27:45.566Z,14.69
2022-11-05T12:29:12.166Z,14.63
2022-11-05T12:29:46.567Z,14.56
2022-11-05T12:30:45.545Z,14.34
2022-11-05T12:31:45.563Z,14.23
2022-11-05T12:32:45.607Z,14.01
2022-11-05T12:33:45.523Z,13.73
2022-11-05T12:34:45.579Z,13.75
2022-11-05T12:35:48.195Z,13.58
2022-11-05T12:36:46.500Z,13.65
2022-11-05T12:37:45.484Z,13.63
2022-11-05T12:38:45.481Z,13.78
2022-11-05T12:39:45.516Z,13.68
2022-11-05T12:40:45.463Z,13.58
2022-11-05T12:41:45.485Z,13.40
2022-11-05T12:42:45.459Z,13.19
2022-11-05T12:43:45.472Z,13.27
2022-11-05T12:44:45.442Z,13.02
2022-11-05T12:45:45.475Z,13.01
2022-11-05T12:46:45.419Z,12.90
2022-11-05T12:47:45.418Z,12.80
2022-11-05T12:48:45.414Z,12.83
2022-11-05T12:49:45.401Z,12.66
2022-11-05T12:50:45.399Z,12.69
2022-11-05T12:51:45.424Z,12.66
2022-11-05T12:52:45.419Z,12.68
2022-11-05T12:53:45.377Z,12.68
2022-11-05T12:54:45.371Z,13.05
2022-11-05T12:55:48.546Z,13.75
2022-11-05T12:56:45.353Z,13.97
2022-11-05T12:57:45.353Z,14.45
2022-11-05T12:58:45.327Z,14.83
2022-11-05T12:59:45.883Z,15.30
2022-11-05T13:00:45.313Z,15.47
2022-11-05T13:01:45.531Z,15.66
2022-11-05T13:02:45.310Z,15.95
2022-11-05T13:03:45.290Z,15.78
2022-11-05T13:04:45.733Z,15.81
2022-11-05T13:05:45.619Z,15.76
2022-11-05T13:06:45.276Z,15.77
2022-11-05T13:07:45.272Z,15.70
2022-11-05T13:08:45.264Z,15.56